createdAt,value
2022-10-18T00:00:20.441Z,65.05
2022-10-18T00:02:46.755Z,65.10
2022-10-18T00:05:13.112Z,65.05
2022-10-18T00:07:39.459Z,65.05
2022-10-18T00:10:06.849Z,64.93
2022-10-18T00:12:33.472Z,65.13
2022-10-18T00:14:59.814Z,64.95
2022-10-18T00:17:27.791Z,65.17
2022-10-18T00:19:54.246Z,65.12
2022-10-18T00:22:20.601Z,65.06
2022-10-18T00:24:46.950Z,65.01
2022-10-18T00:27:13.300Z,64.97
2022-10-18T00:29:39.590Z,65.02
2022-10-18T00:32:06.052Z,65.12
2022-10-18T00:34:33.678Z,65.06
2022-10-18T00:37:00.049Z,65.23
2022-10-18T00:39:26.396Z,64.99
2022-10-18T00:41:53.008Z,65.06
2022-10-18T00:44:34.175Z,65.16
2022-10-18T00:47:02.761Z,65.00
2022-10-18T00:49:31.337Z,64.86
2022-10-18T00:52:00.684Z,65.03
2022-10-18T00:54:28.286Z,64.95
2022-10-18T00:56:54.617Z,64.95
2022-10-18T00:59:21.378Z,64.73
2022-10-18T01:01:47.768Z,64.79
2022-10-18T01:04:15.546Z,64.72
2022-10-18T01:06:50.024Z,64.47
2022-10-18T01:09:21.125Z,64.53
2022-10-18T01:11:55.736Z,64.65
2022-10-18T01:14:29.523Z,64.50
2022-10-18T01:16:58.938Z,64.40
2022-10-18T01:19:39.832Z,64.39
2022-10-18T01:22:09.262Z,64.35
2022-10-18T01:24:45.528Z,64.17
2022-10-18T01:27:23.753Z,63.96
2022-10-18T01:29:58.148Z,64.04
2022-10-18T01:32:27.536Z,63.86
2022-10-18T01:34:57.615Z,63.82
2022-10-18T01:37:25.225Z,63.90
2022-10-18T01:39:55.032Z,63.69
2022-10-18T01:42:21.613Z,63.60
2022-10-18T01:44:50.482Z,63.60
2022-10-18T01:47:17.696Z,63.58
2022-10-18T01:49:45.470Z,63.50
2022-10-18T01:52:12.490Z,63.52
2022-10-18T01:54:39.703Z,63.40
2022-10-18T01:57:12.363Z,63.25
2022-10-18T01:59:47.033Z,63.20
2022-10-18T02:02:18.958Z,63.32
2022-10-18T02:04:51.918Z,63.30
2022-10-18T02:07:23.645Z,63.24
2022-10-18T02:09:56.122Z,63.22
2022-10-18T02:12:22.806Z,63.24
2022-10-18T02:14:49.896Z,63.10
2022-10-18T02:17:17.017Z,63.11
2022-10-18T02:19:46.217Z,62.96
2022-10-18T02:22:14.936Z,62.88
2022-10-18T02:24:42.773Z,62.99
2022-10-18T02:27:09.340Z,62.97
2022-10-18T02:29:36.011Z,62.96
2022-10-18T02:32:05.978Z,62.87
2022-10-18T02:34:35.797Z,62.73
2022-10-18T02:37:02.337Z,62.71
2022-10-18T02:39:30.557Z,62.73
2022-10-18T02:41:57.582Z,62.65
2022-10-18T02:44:24.098Z,62.62
2022-10-18T02:46:50.527Z,62.67
2022-10-18T02:49:16.949Z,62.55
2022-10-18T02:51:43.390Z,62.43
2022-10-18T02:54:10.067Z,62.39
2022-10-18T02:56:37.719Z,62.30
2022-10-18T02:59:04.071Z,62.37
2022-10-18T03:01:30.565Z,62.41
2022-10-18T03:03:57.235Z,62.07
2022-10-18T03:06:23.540Z,62.09
2022-10-18T03:08:49.895Z,62.06
2022-10-18T03:11:16.226Z,61.92
2022-10-18T03:13:43.877Z,62.05
2022-10-18T03:16:10.392Z,61.97
2022-10-18T03:18:36.822Z,62.02
2022-10-18T03:21:04.224Z,61.37
2022-10-18T03:23:31.749Z,61.15
2022-10-18T03:25:58.197Z,61.03
2022-10-18T03:28:24.702Z,60.91
2022-10-18T03:30:52.515Z,61.01
2022-10-18T03:33:19.040Z,60.53
2022-10-18T03:35:45.441Z,60.65
2022-10-18T03:38:11.874Z,60.30
2022-10-18T03:40:38.218Z,60.12
2022-10-18T03:43:04.507Z,60.10
2022-10-18T03:45:31.598Z,59.91
2022-10-18T03:47:59.408Z,59.98
2022-10-18T03:50:25.840Z,59.78
2022-10-18T03:52:52.191Z,59.82
2022-10-18T03:55:18.713Z,59.91
2022-10-18T03:57:45.071Z,59.81
2022-10-18T04:00:11.822Z,59.71
2022-10-18T04:02:38.344Z,59.64
2022-10-18T04:05:06.378Z,59.57
2022-10-18T04:07:32.789Z,59.44
2022-10-18T04:09:59.174Z,59.25
2022-10-18T04:12:25.516Z,59.21
2022-10-18T04:14:51.865Z,59.18
2022-10-18T04:17:18.227Z,59.12
2022-10-18T04:19:44.551Z,59.02
2022-10-18T04:22:12.561Z,59.04
2022-10-18T04:24:39.173Z,59.00
2022-10-18T04:27:06.202Z,59.00
2022-10-18T04:29:32.538Z,58.91
2022-10-18T04:31:58.967Z,58.79
2022-10-18T04:34:25.276Z,58.68
2022-10-18T04:36:51.659Z,58.49
2022-10-18T04:39:19.283Z,58.50
2022-10-18T04:41:45.615Z,58.57
2022-10-18T04:44:11.922Z,58.42
2022-10-18T04:46:38.317Z,58.38
2022-10-18T04:49:04.657Z,58.21
2022-10-18T04:51:31.033Z,58.32
2022-10-18T04:53:57.481Z,57.91
2022-10-18T04:56:25.089Z,57.90
2022-10-18T04:58:51.526Z,58.04
2022-10-18T05:01:17.872Z,57.82
2022-10-18T05:03:44.373Z,57.80
2022-10-18T05:06:10.967Z,57.91
2022-10-18T05:08:37.336Z,57.62
2022-10-18T05:11:04.109Z,57.81
2022-10-18T05:13:31.952Z,57.72
2022-10-18T05:15:58.251Z,57.54
2022-10-18T05:18:24.686Z,57.42
2022-10-18T05:20:51.016Z,57.46
2022-10-18T05:23:17.412Z,57.48
2022-10-18T05:25:43.814Z,58.40
2022-10-18T05:28:15.633Z,57.86
2022-10-18T05:30:55.101Z,57.90
2022-10-18T05:33:21.732Z,57.51
2022-10-18T05:35:48.042Z,57.82
2022-10-18T05:38:14.523Z,57.71
2022-10-18T05:40:40.843Z,57.58
2022-10-18T05:43:07.163Z,57.73
2022-10-18T05:45:33.609Z,57.69
2022-10-18T05:48:01.250Z,57.51
2022-10-18T05:50:27.956Z,57.78
2022-10-18T05:53:02.661Z,57.71
2022-10-18T05:55:38.626Z,57.85
2022-10-18T05:58:05.021Z,57.86
2022-10-18T06:00:31.357Z,58.00
2022-10-18T06:03:00.226Z,57.99
2022-10-18T06:05:28.663Z,58.08
2022-10-18T06:07:56.097Z,58.22
2022-10-18T06:10:22.447Z,58.67
2022-10-18T06:12:48.822Z,60.28
2022-10-18T06:15:15.327Z,60.66
2022-10-18T06:17:41.984Z,59.91
2022-10-18T06:20:08.849Z,59.91
2022-10-18T06:22:36.536Z,59.41
2022-10-18T06:25:02.895Z,59.76
2022-10-18T06:27:29.428Z,59.74
2022-10-18T06:29:55.920Z,59.93
2022-10-18T06:32:22.490Z,59.82
2022-10-18T06:34:48.977Z,59.81
2022-10-18T06:37:15.389Z,59.75
2022-10-18T06:39:43.174Z,59.99
2022-10-18T06:42:09.573Z,59.74
2022-10-18T06:44:35.947Z,59.89
2022-10-18T06:47:02.315Z,59.76
2022-10-18T06:49:29.169Z,59.79
2022-10-18T06:51:55.579Z,59.98
2022-10-18T06:54:21.986Z,59.85
2022-10-18T06:56:49.694Z,60.03
2022-10-18T06:59:16.262Z,60.07
2022-10-18T07:01:42.729Z,60.21
2022-10-18T07:04:09.166Z,60.24
2022-10-18T07:06:35.679Z,60.34
2022-10-18T07:09:02.061Z,60.77
2022-10-18T07:11:28.370Z,61.20
2022-10-18T07:13:59.806Z,61.03
2022-10-18T07:16:26.155Z,61.27
2022-10-18T07:18:52.497Z,61.26
2022-10-18T07:21:19.924Z,61.08
2022-10-18T07:23:46.875Z,61.11
2022-10-18T07:26:14.374Z,61.05
2022-10-18T07:28:40.990Z,60.98
2022-10-18T07:31:09.587Z,61.02
2022-10-18T07:33:36.447Z,61.03
2022-10-18T07:36:02.961Z,61.36
2022-10-18T07:38:29.494Z,60.91
2022-10-18T07:40:56.209Z,60.95
2022-10-18T07:43:22.664Z,61.07
2022-10-18T07:45:51.584Z,61.04
2022-10-18T07:48:19.293Z,61.02
2022-10-18T07:50:45.661Z,60.92
2022-10-18T07:53:12.147Z,60.88
2022-10-18T07:55:38.478Z,60.84
2022-10-18T07:58:04.804Z,61.12
2022-10-18T08:00:31.111Z,61.49
2022-10-18T08:02:58.005Z,62.53
2022-10-18T08:05:26.776Z,62.95
2022-10-18T08:07:53.483Z,63.48
2022-10-18T08:10:20.233Z,63.68
2022-10-18T08:12:46.710Z,63.76
2022-10-18T08:15:13.162Z,63.66
2022-10-18T08:17:39.518Z,63.80
2022-10-18T08:20:12.327Z,64.09
2022-10-18T08:22:49.500Z,64.27
2022-10-18T08:25:16.255Z,64.50
2022-10-18T08:27:42.690Z,64.94
2022-10-18T08:30:09.467Z,64.96
2022-10-18T08:32:35.895Z,65.44
2022-10-18T08:35:04.525Z,65.81
2022-10-18T08:37:33.847Z,66.35
2022-10-18T08:40:01.830Z,66.24
2022-10-18T08:42:39.694Z,65.52
2022-10-18T08:45:12.861Z,64.88
2022-10-18T08:47:50.219Z,64.64
2022-10-18T08:50:20.395Z,64.48
2022-10-18T08:52:50.573Z,64.67
2022-10-18T08:55:21.862Z,64.50
2022-10-18T08:57:48.856Z,64.59
2022-10-18T09:00:15.898Z,64.47
2022-10-18T09:02:51.719Z,64.35
2022-10-18T09:05:24.255Z,64.07
2022-10-18T09:08:05.543Z,64.32
2022-10-18T09:10:40.602Z,63.81
2022-10-18T09:13:16.225Z,63.96
2022-10-18T09:15:45.663Z,63.98
2022-10-18T09:18:20.176Z,64.15
2022-10-18T09:20:49.591Z,64.03
2022-10-18T09:23:18.713Z,63.86
2022-10-18T09:25:47.250Z,63.85
2022-10-18T09:28:16.797Z,63.97
2022-10-18T09:30:45.756Z,63.97
2022-10-18T09:33:26.991Z,64.07
2022-10-18T09:35:56.550Z,64.03
2022-10-18T09:40:55.969Z,64.22
2022-10-18T09:43:23.673Z,64.40
2022-10-18T09:45:52.189Z,64.43
2022-10-18T09:48:21.551Z,64.54
2022-10-18T09:50:50.928Z,64.49
2022-10-18T09:53:20.413Z,64.83
2022-10-18T09:55:56.914Z,64.27
2022-10-18T09:58:25.085Z,64.26
2022-10-18T10:00:52.748Z,64.05
2022-10-18T10:03:19.144Z,64.06
2022-10-18T10:05:45.474Z,64.06
2022-10-18T10:08:12.265Z,64.28
2022-10-18T10:10:40.681Z,64.04
2022-10-18T10:13:14.839Z,64.12
2022-10-18T10:15:45.768Z,63.88
2022-10-18T10:18:18.738Z,64.30
2022-10-18T10:20:46.718Z,64.20
2022-10-18T10:23:16.281Z,63.99
2022-10-18T10:25:43.030Z,63.86
2022-10-18T10:28:16.343Z,64.04
2022-10-18T10:30:42.721Z,64.07
2022-10-18T10:33:29.125Z,65.92
2022-10-18T10:35:58.596Z,66.49
2022-10-18T10:38:25.886Z,66.64
2022-10-18T10:40:53.056Z,66.89
2022-10-18T10:43:39.184Z,66.83
2022-10-18T10:46:07.428Z,66.69
2022-10-18T10:48:39.324Z,66.70
2022-10-18T10:51:06.914Z,66.50
2022-10-18T10:53:38.551Z,66.57
2022-10-18T10:56:05.928Z,66.80
2022-10-18T10:58:37.642Z,66.88
2022-10-18T11:01:17.990Z,66.87
2022-10-18T11:03:46.136Z,66.89
2022-10-18T11:06:27.141Z,67.00
2022-10-18T11:08:53.885Z,66.85
2022-10-18T11:11:23.441Z,66.98
2022-10-18T11:14:13.601Z,66.93
2022-10-18T11:16:49.913Z,66.88
2022-10-18T11:19:29.898Z,66.79
2022-10-18T11:21:56.751Z,66.69
2022-10-18T11:24:23.544Z,66.89
2022-10-18T11:26:56.077Z,67.13
2022-10-18T11:29:32.743Z,67.43
2022-10-18T11:32:04.241Z,67.25
2022-10-18T11:34:38.979Z,66.93
2022-10-18T11:37:27.141Z,67.35
2022-10-18T11:39:57.829Z,67.37
2022-10-18T11:42:29.189Z,67.28
2022-10-18T11:45:02.282Z,67.46
2022-10-18T11:47:33.211Z,67.52
2022-10-18T11:50:06.249Z,67.25
2022-10-18T11:52:39.532Z,66.95
2022-10-18T11:55:12.151Z,66.96
2022-10-18T11:57:42.863Z,67.14
2022-10-18T12:00:17.701Z,67.16
2022-10-18T12:02:54.048Z,66.83
2022-10-18T12:05:24.088Z,66.86
2022-10-18T12:07:53.880Z,66.88
2022-10-18T12:10:31.470Z,66.97
2022-10-18T12:13:11.103Z,66.82
2022-10-18T12:15:39.458Z,66.70
2022-10-18T12:18:07.946Z,66.72
2022-10-18T12:20:36.191Z,66.79
2022-10-18T12:23:03.417Z,66.82
2022-10-18T12:25:32.396Z,67.22
2022-10-18T12:28:02.550Z,66.82
2022-10-18T12:30:32.184Z,66.83
2022-10-18T12:33:26.774Z,66.35
2022-10-18T12:35:57.883Z,66.44
2022-10-18T12:38:27.910Z,66.57
2022-10-18T12:40:54.657Z,66.03
2022-10-18T12:43:22.996Z,66.62
2022-10-18T12:45:51.875Z,66.56
2022-10-18T12:48:29.903Z,65.51
2022-10-18T12:50:58.185Z,65.92
2022-10-18T12:53:26.266Z,66.46
2022-10-18T12:55:53.123Z,66.21
2022-10-18T12:58:22.511Z,66.30
2022-10-18T13:00:58.241Z,65.97
2022-10-18T13:03:37.839Z,66.46
2022-10-18T13:06:06.813Z,66.61
2022-10-18T13:08:36.813Z,66.34
2022-10-18T13:11:12.493Z,67.05
2022-10-18T13:13:49.686Z,67.04
2022-10-18T13:16:30.886Z,67.14
2022-10-18T13:18:58.921Z,66.82
2022-10-18T13:21:33.820Z,66.79
2022-10-18T13:24:09.056Z,67.59
2022-10-18T13:26:39.532Z,67.29
2022-10-18T13:29:16.561Z,66.95
2022-10-18T13:31:47.718Z,66.72
2022-10-18T13:34:23.431Z,66.76
2022-10-18T13:36:57.239Z,66.89
2022-10-18T13:39:23.945Z,67.09
2022-10-18T13:42:02.671Z,66.83
2022-10-18T13:44:29.560Z,66.27
2022-10-18T13:47:10.749Z,65.37
2022-10-18T13:49:44.498Z,65.94
2022-10-18T13:52:15.466Z,67.11
2022-10-18T13:54:50.915Z,66.40
2022-10-18T13:57:22.545Z,66.83
2022-10-18T13:59:58.629Z,67.11
2022-10-18T14:02:51.575Z,66.49
2022-10-18T14:05:29.944Z,67.44
2022-10-18T14:08:00.248Z,66.76
2022-10-18T14:10:43.727Z,67.07
2022-10-18T14:13:20.033Z,66.84
2022-10-18T14:15:49.035Z,66.70
2022-10-18T14:18:17.297Z,66.88
2022-10-18T14:21:01.445Z,66.67
2022-10-18T14:23:35.567Z,66.80
2022-10-18T14:26:06.650Z,66.86
2022-10-18T14:28:54.914Z,67.40
2022-10-18T14:31:19.600Z,67.57
2022-10-18T14:33:46.700Z,67.72
2022-10-18T14:36:15.639Z,67.31
2022-10-18T14:38:48.382Z,66.65
2022-10-18T14:41:15.638Z,66.98
2022-10-18T14:43:42.144Z,66.52
2022-10-18T14:46:09.788Z,67.00
2022-10-18T14:48:36.186Z,67.51
2022-10-18T14:51:03.875Z,67.44
2022-10-18T14:53:32.640Z,66.79
2022-10-18T14:56:00.815Z,66.32
2022-10-18T14:58:27.431Z,65.89
2022-10-18T15:00:53.958Z,66.58
2022-10-18T15:03:20.705Z,65.49
2022-10-18T15:05:55.376Z,66.44
2022-10-18T15:08:23.470Z,66.65
2022-10-18T15:10:49.944Z,66.69
2022-10-18T15:13:18.012Z,66.82
2022-10-18T15:15:44.702Z,66.70
2022-10-18T15:18:19.247Z,66.35
2022-10-18T15:20:45.621Z,65.77
2022-10-18T15:23:21.347Z,65.59
2022-10-18T15:25:47.803Z,65.56
2022-10-18T15:28:24.507Z,65.34
2022-10-18T15:30:51.098Z,65.30
2022-10-18T15:33:21.334Z,65.09
2022-10-18T15:35:47.967Z,64.98
2022-10-18T15:38:15.606Z,63.71
2022-10-18T15:40:42.777Z,61.57
2022-10-18T15:43:24.803Z,61.51
2022-10-18T15:45:53.681Z,61.68
2022-10-18T15:48:22.707Z,61.60
2022-10-18T15:50:50.184Z,61.14
2022-10-18T15:53:30.512Z,60.66
2022-10-18T15:55:57.752Z,60.48
2022-10-18T15:58:25.692Z,59.96
2022-10-18T16:00:56.151Z,60.43
2022-10-18T16:03:23.036Z,62.15
2022-10-18T16:05:51.498Z,62.31
2022-10-18T16:08:20.730Z,62.16
2022-10-18T16:10:47.620Z,62.24
2022-10-18T16:13:14.790Z,62.12
2022-10-18T16:15:41.311Z,62.36
2022-10-18T16:18:11.164Z,62.50
2022-10-18T16:20:37.544Z,62.42
2022-10-18T16:23:08.584Z,62.45
2022-10-18T16:25:34.883Z,62.88
2022-10-18T16:28:01.152Z,62.65
2022-10-18T16:30:28.329Z,62.43
2022-10-18T16:36:07.352Z,63.13
2022-10-18T16:38:55.445Z,61.68
2022-10-18T16:41:22.598Z,61.14
2022-10-18T16:43:49.559Z,61.46
2022-10-18T16:46:17.047Z,61.00
2022-10-18T16:48:43.920Z,60.31
2022-10-18T16:51:11.787Z,61.19
2022-10-18T16:53:38.284Z,59.63
2022-10-18T16:56:06.392Z,63.00
2022-10-18T16:58:33.042Z,62.08
2022-10-18T17:01:01.030Z,62.33
2022-10-18T17:03:29.395Z,62.07
2022-10-18T17:05:55.883Z,61.94
2022-10-18T17:08:24.830Z,62.34
2022-10-18T17:10:52.562Z,62.57
2022-10-18T17:13:19.148Z,62.35
2022-10-18T17:15:45.683Z,62.32
2022-10-18T17:18:16.100Z,62.57
2022-10-18T17:20:43.145Z,62.61
2022-10-18T17:23:09.720Z,62.41
2022-10-18T17:25:46.272Z,62.73
2022-10-18T17:28:24.082Z,62.81
2022-10-18T17:30:50.473Z,61.75
2022-10-18T17:33:16.826Z,60.61
2022-10-18T17:35:44.234Z,60.30
2022-10-18T17:38:10.999Z,60.50
2022-10-18T17:40:40.562Z,59.90
2022-10-18T17:43:07.099Z,59.42
2022-10-18T17:45:33.647Z,60.38
2022-10-18T17:48:00.013Z,61.53
2022-10-18T17:50:26.545Z,61.14
2022-10-18T17:52:52.877Z,61.66
2022-10-18T17:55:19.252Z,61.53
2022-10-18T17:57:46.925Z,61.72
2022-10-18T18:00:13.403Z,61.79
2022-10-18T18:02:41.857Z,61.63
2022-10-18T18:05:08.751Z,61.47
2022-10-18T18:07:35.100Z,61.91
2022-10-18T18:10:01.437Z,62.26
2022-10-18T18:12:27.746Z,61.98
2022-10-18T18:14:55.532Z,62.28
2022-10-18T18:17:28.784Z,62.34
2022-10-18T18:20:00.682Z,61.58
2022-10-18T18:22:27.165Z,60.79
2022-10-18T18:24:53.517Z,60.79
2022-10-18T18:27:19.850Z,61.97
2022-10-18T18:29:46.169Z,59.49
2022-10-18T18:32:14.072Z,60.77
2022-10-18T18:34:40.436Z,59.49
2022-10-18T18:37:07.114Z,61.11
2022-10-18T18:39:33.848Z,61.62
2022-10-18T18:42:00.485Z,61.26
2022-10-18T18:44:27.364Z,61.39
2022-10-18T18:46:54.056Z,61.27
2022-10-18T18:49:21.997Z,61.36
2022-10-18T18:51:48.717Z,61.75
2022-10-18T18:54:15.861Z,61.81
2022-10-18T18:56:42.965Z,61.79
2022-10-18T18:59:12.231Z,61.66
2022-10-18T19:01:38.948Z,61.84
2022-10-18T19:04:06.303Z,61.90
2022-10-18T19:06:34.935Z,61.95
2022-10-18T19:09:01.648Z,61.93
2022-10-18T19:11:29.702Z,62.03
2022-10-18T19:13:56.433Z,60.03
2022-10-18T19:16:24.917Z,60.07
2022-10-18T19:18:52.633Z,59.81
2022-10-18T19:21:19.353Z,59.60
2022-10-18T19:23:47.837Z,59.28
2022-10-18T19:26:21.716Z,59.56
2022-10-18T19:28:48.429Z,61.04
2022-10-18T19:31:15.222Z,61.19
2022-10-18T19:33:48.791Z,60.99
2022-10-18T19:36:22.746Z,61.16
2022-10-18T19:38:50.853Z,61.15
2022-10-18T19:41:17.815Z,61.17
2022-10-18T19:43:44.593Z,61.12
2022-10-18T19:46:11.372Z,61.46
2022-10-18T19:48:38.181Z,61.43
2022-10-18T19:51:07.010Z,61.39
2022-10-18T19:53:35.990Z,61.83
2022-10-18T19:56:04.848Z,61.79
2022-10-18T19:58:31.983Z,61.99
2022-10-18T20:00:58.852Z,62.38
2022-10-18T20:03:26.322Z,61.02
2022-10-18T20:05:54.330Z,61.14
2022-10-18T20:08:21.045Z,60.22
2022-10-18T20:10:47.846Z,60.69
2022-10-18T20:13:15.927Z,61.23
2022-10-18T20:15:42.571Z,61.98
2022-10-18T20:18:09.178Z,61.39
2022-10-18T20:20:35.841Z,61.17
2022-10-18T20:23:02.528Z,61.27
2022-10-18T20:25:29.184Z,61.27
2022-10-18T20:27:55.953Z,61.55
2022-10-18T20:30:23.953Z,61.68
2022-10-18T20:32:51.219Z,61.58
2022-10-18T20:35:17.697Z,61.53
2022-10-18T20:37:44.131Z,61.74
2022-10-18T20:40:11.190Z,61.77
2022-10-18T20:42:37.707Z,61.76
2022-10-18T20:45:05.573Z,61.93
2022-10-18T20:47:34.002Z,62.15
2022-10-18T20:50:00.852Z,61.91
2022-10-18T20:52:27.281Z,61.08
2022-10-18T20:54:54.127Z,60.53
2022-10-18T20:57:20.647Z,59.77
2022-10-18T20:59:48.500Z,59.56
2022-10-18T21:02:15.215Z,59.65
2022-10-18T21:04:43.228Z,61.88
2022-10-18T21:07:09.868Z,60.69
2022-10-18T21:09:36.552Z,60.78
2022-10-18T21:12:03.422Z,61.09
2022-10-18T21:14:29.855Z,60.95
2022-10-18T21:16:56.220Z,61.56
2022-10-18T21:19:23.513Z,61.22
2022-10-18T21:21:52.403Z,61.21
2022-10-18T21:24:19.602Z,61.29
2022-10-18T21:26:46.380Z,61.18
2022-10-18T21:29:12.815Z,61.69
2022-10-18T21:31:40.183Z,61.24
2022-10-18T21:34:09.787Z,61.45
2022-10-18T21:36:36.746Z,61.29
2022-10-18T21:39:05.220Z,61.59
2022-10-18T21:41:32.180Z,61.59
2022-10-18T21:43:58.581Z,60.40
2022-10-18T21:46:25.472Z,60.38
2022-10-18T21:48:52.787Z,59.85
2022-10-18T21:51:20.246Z,60.22
2022-10-18T21:53:47.634Z,59.39
2022-10-18T21:56:16.074Z,60.42
2022-10-18T21:58:42.770Z,60.35
2022-10-18T22:01:09.638Z,60.45
2022-10-18T22:03:36.140Z,60.33
2022-10-18T22:06:04.154Z,60.38
2022-10-18T22:08:30.572Z,60.58
2022-10-18T22:10:57.344Z,60.81
2022-10-18T22:13:25.029Z,61.02
2022-10-18T22:15:51.560Z,60.87
2022-10-18T22:18:18.155Z,61.21
2022-10-18T22:20:52.629Z,61.04
2022-10-18T22:23:18.968Z,61.25
2022-10-18T22:25:45.363Z,61.22
2022-10-18T22:28:11.860Z,61.38
2022-10-18T22:30:39.585Z,61.21
2022-10-18T22:33:06.103Z,61.66
2022-10-18T22:35:32.873Z,60.61
2022-10-18T22:37:59.337Z,60.09
2022-10-18T22:40:25.817Z,61.16
2022-10-18T22:42:52.501Z,61.39
2022-10-18T22:45:18.900Z,59.88
2022-10-18T22:47:46.538Z,60.29
2022-10-18T22:50:12.883Z,61.05
2022-10-18T22:52:39.203Z,60.68
2022-10-18T22:55:05.935Z,60.50
2022-10-18T22:57:32.280Z,60.58
2022-10-18T22:59:58.647Z,60.69
2022-10-18T23:02:25.089Z,60.91
2022-10-18T23:04:52.773Z,61.18
2022-10-18T23:07:19.159Z,60.86
2022-10-18T23:09:45.662Z,61.09
2022-10-18T23:12:12.001Z,61.13
2022-10-18T23:14:38.324Z,61.13
2022-10-18T23:17:04.674Z,61.11
2022-10-18T23:19:31.035Z,61.11
2022-10-18T23:21:58.662Z,61.35
2022-10-18T23:24:24.962Z,61.36
2022-10-18T23:26:51.352Z,61.79
2022-10-18T23:29:17.680Z,61.40
2022-10-18T23:31:44.014Z,61.27
2022-10-18T23:34:10.590Z,60.97
2022-10-18T23:36:36.994Z,61.39
2022-10-18T23:39:04.693Z,60.29
2022-10-18T23:41:31.140Z,60.68
2022-10-18T23:43:57.562Z,60.52
2022-10-18T23:46:24.299Z,59.96
2022-10-18T23:48:50.638Z,60.37
2022-10-18T23:51:17.309Z,60.52
2022-10-18T23:53:43.791Z,60.42
2022-10-18T23:56:14.636Z,60.59
2022-10-18T23:58:41.223Z,60.45
